createdAt,value
2022-09-28T00:00:28.899Z,7.79
2022-09-28T00:02:45.275Z,7.73
2022-09-28T00:05:01.600Z,8.00
2022-09-28T00:07:21.684Z,7.73
2022-09-28T00:09:38.209Z,8.00
2022-09-28T00:11:58.793Z,7.68
2022-09-28T00:14:19.298Z,8.00
2022-09-28T00:16:38.786Z,8.00
2022-09-28T00:18:55.296Z,7.84
2022-09-28T00:21:15.827Z,8.00
2022-09-28T00:23:32.447Z,7.79
2022-09-28T00:25:50.053Z,7.90
2022-09-28T00:28:11.262Z,7.95
2022-09-28T00:30:29.877Z,8.00
2022-09-28T00:32:46.389Z,8.00
2022-09-28T00:35:05.612Z,7.73
2022-09-28T00:37:26.113Z,7.68
2022-09-28T00:39:46.819Z,7.63
2022-09-28T00:42:01.298Z,7.90
2022-09-28T00:44:17.931Z,7.63
2022-09-28T00:46:34.493Z,8.00
2022-09-28T00:48:51.009Z,7.68
2022-09-28T00:51:11.664Z,7.68
2022-09-28T00:53:34.920Z,7.95
2022-09-28T00:56:09.355Z,7.84
2022-09-28T00:58:25.907Z,7.95
2022-09-28T01:00:44.045Z,7.73
2022-09-28T01:03:02.169Z,8.00
2022-09-28T01:05:22.784Z,7.95
2022-09-28T01:07:42.299Z,8.00
2022-09-28T01:10:02.891Z,7.63
2022-09-28T01:12:23.535Z,7.68
2022-09-28T01:14:42.614Z,7.90
2022-09-28T01:17:04.239Z,7.63
2022-09-28T01:19:25.292Z,7.84
2022-09-28T01:21:45.920Z,7.68
2022-09-28T01:24:06.481Z,7.68
2022-09-28T01:26:23.024Z,7.90
2022-09-28T01:28:44.037Z,7.68
2022-09-28T01:31:04.571Z,7.95
2022-09-28T01:33:23.668Z,7.68
2022-09-28T01:35:40.161Z,8.00
2022-09-28T01:37:56.744Z,7.90
2022-09-28T01:40:17.334Z,7.90
2022-09-28T01:42:31.910Z,7.79
2022-09-28T01:44:50.063Z,7.79
2022-09-28T01:47:06.704Z,7.68
2022-09-28T01:52:34.206Z,7.95
2022-09-28T01:54:53.498Z,8.00
2022-09-28T02:00:33.172Z,7.90
2022-09-28T02:02:55.867Z,8.00
2022-09-28T02:05:17.097Z,7.84
2022-09-28T02:07:33.799Z,7.95
2022-09-28T02:09:56.325Z,7.79
2022-09-28T02:12:17.008Z,7.73
2022-09-28T02:14:52.417Z,7.73
2022-09-28T02:17:12.035Z,7.63
2022-09-28T02:19:58.043Z,7.95
2022-09-28T02:22:17.974Z,7.63
2022-09-28T02:24:40.019Z,7.79
2022-09-28T02:27:00.418Z,7.68
2022-09-28T02:29:18.795Z,8.00
2022-09-28T02:31:39.288Z,7.73
2022-09-28T02:33:59.838Z,8.06
2022-09-28T02:36:18.840Z,7.57
2022-09-28T02:38:38.026Z,7.84
2022-09-28T02:41:22.924Z,7.95
2022-09-28T02:43:39.483Z,7.68
2022-09-28T02:46:31.446Z,7.95
2022-09-28T02:49:00.064Z,8.00
2022-09-28T02:51:06.982Z,7.79
2022-09-28T02:53:25.772Z,7.68
2022-09-28T02:55:44.936Z,7.68
2022-09-28T02:58:28.701Z,7.79
2022-09-28T03:00:49.919Z,7.73
2022-09-28T03:03:08.986Z,7.95
2022-09-28T03:47:52.265Z,7.95
2022-09-28T03:50:10.902Z,7.90
2022-09-28T03:52:31.712Z,8.00
2022-09-28T03:55:57.541Z,7.63
2022-09-28T03:58:14.138Z,7.95
2022-09-28T04:00:31.028Z,7.73
2022-09-28T04:02:47.575Z,7.84
2022-09-28T04:23:01.838Z,8.00
2022-09-28T04:36:58.248Z,7.68
2022-09-28T04:38:57.838Z,7.73
2022-09-28T04:44:28.735Z,8.00
2022-09-28T04:48:59.552Z,7.68
2022-09-28T04:51:20.135Z,7.95
2022-09-28T05:01:09.195Z,7.68
2022-09-28T05:34:34.357Z,7.95
2022-09-28T05:36:48.896Z,8.00
2022-09-28T05:39:03.457Z,8.00
2022-09-28T05:41:23.742Z,7.63
2022-09-28T05:43:40.327Z,7.68
2022-09-28T05:46:00.483Z,7.90
2022-09-28T05:49:29.833Z,8.00
2022-09-28T05:51:45.335Z,7.95
2022-09-28T05:54:04.846Z,7.73
2022-09-28T05:56:21.995Z,7.68
2022-09-28T05:59:29.319Z,7.68
2022-09-28T06:03:31.484Z,8.06
2022-09-28T06:16:07.518Z,8.00
2022-09-28T06:18:42.043Z,7.73
2022-09-28T06:23:46.858Z,7.68
2022-09-28T06:27:44.833Z,7.52
2022-09-28T06:30:02.979Z,7.73
2022-09-28T06:32:21.816Z,8.00
2022-09-28T06:34:42.527Z,7.90
2022-09-28T06:38:24.312Z,7.95
2022-09-28T06:55:15.571Z,7.95
2022-09-28T07:03:14.220Z,7.79
2022-09-28T07:05:40.926Z,7.95
2022-09-28T07:11:43.473Z,7.95
2022-09-28T07:13:57.933Z,7.63
2022-09-28T07:17:13.280Z,7.63
2022-09-28T07:18:03.925Z,7.73
2022-09-28T07:20:19.455Z,7.73
2022-09-28T07:22:41.799Z,7.47
2022-09-28T07:23:33.617Z,7.52
2022-09-28T07:25:46.683Z,7.52
2022-09-28T07:27:59.792Z,7.57
2022-09-28T07:30:15.406Z,7.63
2022-09-28T07:34:46.541Z,7.52
2022-09-28T07:37:02.101Z,7.73
2022-09-28T07:39:17.698Z,7.68
2022-09-28T07:41:33.265Z,7.52
2022-09-28T07:43:51.337Z,7.68
2022-09-28T07:46:06.996Z,7.84
2022-09-28T07:48:22.501Z,7.73
2022-09-28T07:50:38.099Z,7.63
2022-09-28T07:52:53.665Z,7.57
2022-09-28T07:55:08.244Z,7.79
2022-09-28T07:57:23.861Z,7.73
2022-09-28T07:59:39.464Z,7.47
2022-09-28T08:01:52.603Z,7.57
2022-09-28T08:04:13.679Z,7.63
2022-09-28T08:06:29.212Z,7.52
2022-09-28T08:08:47.625Z,7.79
2022-09-28T08:11:02.500Z,7.47
2022-09-28T08:13:26.710Z,7.52
2022-09-28T08:15:36.179Z,7.73
2022-09-28T08:18:05.605Z,7.84
2022-09-28T08:20:21.202Z,7.47
2022-09-28T08:22:40.520Z,7.79
2022-09-28T08:25:01.414Z,7.47
2022-09-28T08:27:14.531Z,7.73
2022-09-28T08:29:30.119Z,7.84
2022-09-28T08:31:44.678Z,7.52
2022-09-28T08:33:57.746Z,7.52
2022-09-28T08:36:11.130Z,8.11
2022-09-28T08:38:26.737Z,8.00
2022-09-28T08:40:44.872Z,8.00
2022-09-28T08:43:03.564Z,8.00
2022-09-28T08:45:18.119Z,8.00
2022-09-28T08:47:49.035Z,7.63
2022-09-28T08:50:07.684Z,7.73
2022-09-28T08:52:23.708Z,8.00
2022-09-28T08:54:41.673Z,7.68
2022-09-28T08:56:56.284Z,7.95
2022-09-28T08:59:17.954Z,7.95
2022-09-28T09:01:38.106Z,7.73
2022-09-28T09:03:53.624Z,7.52
2022-09-28T09:06:06.996Z,7.52
2022-09-28T09:08:25.721Z,7.63
2022-09-28T09:10:44.141Z,7.73
2022-09-28T09:13:00.714Z,7.79
2022-09-28T09:15:18.939Z,7.95
2022-09-28T09:17:35.332Z,8.00
2022-09-28T09:19:49.919Z,7.73
2022-09-28T09:22:05.545Z,7.68
2022-09-28T09:24:24.393Z,8.00
2022-09-28T09:26:40.922Z,7.79
2022-09-28T09:28:56.387Z,7.73
2022-09-28T09:31:12.359Z,7.68
2022-09-28T09:33:27.999Z,7.84
2022-09-28T09:35:46.052Z,7.84
2022-09-28T09:38:01.580Z,7.79
2022-09-28T09:40:20.805Z,7.68
2022-09-28T09:42:36.340Z,7.79
2022-09-28T09:44:52.020Z,7.73
2022-09-28T09:47:10.917Z,7.47
2022-09-28T09:49:29.297Z,7.79
2022-09-28T09:51:44.635Z,7.73
2022-09-28T09:54:05.297Z,7.73
2022-09-28T09:56:18.340Z,7.84
2022-09-28T09:58:34.057Z,7.95
2022-09-28T10:00:48.479Z,7.52
2022-09-28T10:03:03.067Z,7.95
2022-09-28T10:05:19.488Z,7.63
2022-09-28T10:07:34.247Z,7.63
2022-09-28T10:09:48.824Z,7.57
2022-09-28T10:12:04.392Z,7.52
2022-09-28T10:14:20.011Z,7.25
2022-09-28T10:16:35.619Z,7.47
2022-09-28T10:18:51.330Z,7.79
2022-09-28T10:21:09.239Z,7.52
2022-09-28T10:23:24.815Z,7.79
2022-09-28T10:25:40.418Z,7.68
2022-09-28T10:27:58.481Z,7.47
2022-09-28T10:30:14.979Z,7.68
2022-09-28T10:32:30.656Z,7.73
2022-09-28T10:34:50.892Z,7.57
2022-09-28T10:37:03.335Z,7.52
2022-09-28T10:39:21.480Z,7.57
2022-09-28T10:40:21.451Z,7.47
2022-09-28T10:42:39.482Z,7.79
2022-09-28T10:44:59.464Z,7.73
2022-09-28T10:47:15.056Z,7.52
2022-09-28T10:49:33.145Z,7.47
2022-09-28T10:51:46.239Z,7.68
2022-09-28T10:54:02.201Z,7.73
2022-09-28T10:56:18.531Z,7.52
2022-09-28T10:58:35.854Z,7.52
2022-09-28T11:00:51.353Z,7.52
2022-09-28T11:03:12.095Z,7.84
2022-09-28T11:05:27.875Z,7.52
2022-09-28T11:07:45.943Z,7.79
2022-09-28T11:10:01.553Z,7.57
2022-09-28T11:12:19.613Z,7.52
2022-09-28T11:14:42.756Z,7.52
2022-09-28T11:16:58.516Z,7.52
2022-09-28T11:19:16.398Z,7.63
2022-09-28T11:21:34.756Z,7.90
2022-09-28T11:23:47.225Z,7.47
2022-09-28T11:26:05.400Z,7.73
2022-09-28T11:28:23.334Z,7.52
2022-09-28T11:31:05.489Z,7.47
2022-09-28T11:33:20.922Z,7.68
2022-09-28T11:35:36.466Z,7.73
2022-09-28T11:37:52.107Z,7.84
2022-09-28T11:40:10.172Z,7.47
2022-09-28T11:42:28.189Z,7.47
2022-09-28T11:44:43.772Z,7.52
2022-09-28T11:46:58.700Z,7.73
2022-09-28T11:49:19.490Z,7.57
2022-09-28T11:51:32.536Z,7.04
2022-09-28T11:53:48.717Z,7.52
2022-09-28T11:56:08.512Z,7.73
2022-09-28T11:58:22.912Z,7.79
2022-09-28T12:00:40.529Z,7.79
2022-09-28T12:02:58.773Z,7.47
2022-09-28T12:05:20.693Z,7.73
2022-09-28T12:07:34.982Z,7.57
2022-09-28T12:09:51.353Z,7.84
2022-09-28T12:12:09.513Z,7.79
2022-09-28T12:14:26.263Z,7.73
2022-09-28T12:17:42.604Z,7.63
2022-09-28T12:19:59.651Z,7.52
2022-09-28T12:22:15.224Z,7.57
2022-09-28T12:24:33.330Z,7.68
2022-09-28T12:26:48.114Z,7.52
2022-09-28T12:29:06.178Z,7.73
2022-09-28T12:31:21.644Z,7.57
2022-09-28T12:33:37.286Z,7.52
2022-09-28T12:35:55.392Z,7.52
2022-09-28T12:38:09.172Z,7.73
2022-09-28T12:41:10.969Z,7.52
2022-09-28T12:43:26.552Z,7.36
2022-09-28T12:46:37.131Z,7.52
2022-09-28T12:49:36.771Z,7.73
2022-09-28T12:50:37.146Z,7.79
2022-09-28T12:52:09.785Z,7.47
2022-09-28T12:54:25.443Z,7.52
2022-09-28T12:56:43.513Z,7.73
2022-09-28T12:59:01.662Z,7.57
2022-09-28T13:01:15.152Z,7.41
2022-09-28T13:03:30.696Z,7.47
2022-09-28T13:05:46.414Z,7.57
2022-09-28T13:08:01.960Z,7.30
2022-09-28T13:10:17.448Z,7.79
2022-09-28T13:12:33.053Z,7.63
2022-09-28T13:14:48.646Z,7.47
2022-09-28T13:17:04.200Z,7.57
2022-09-28T13:19:19.952Z,7.57
2022-09-28T13:21:35.372Z,7.52
2022-09-28T13:23:51.948Z,7.63
2022-09-28T13:26:07.543Z,7.79
2022-09-28T13:28:26.269Z,7.73
2022-09-28T13:30:40.357Z,7.73
2022-09-28T13:32:54.347Z,7.47
2022-09-28T13:35:07.863Z,7.73
2022-09-28T13:37:22.975Z,7.79
2022-09-28T13:39:36.025Z,7.63
2022-09-28T13:41:51.601Z,7.57
2022-09-28T13:44:04.693Z,7.25
2022-09-28T13:46:21.956Z,7.73
2022-09-28T13:48:36.877Z,7.47
2022-09-28T13:50:49.927Z,7.52
2022-09-28T13:53:05.523Z,7.63
2022-09-28T13:55:18.629Z,7.30
2022-09-28T13:57:34.497Z,7.25
2022-09-28T13:59:51.124Z,7.47
2022-09-28T14:02:07.034Z,7.57
2022-09-28T14:04:21.257Z,7.57
2022-09-28T14:06:37.691Z,7.47
2022-09-28T14:08:49.920Z,7.41
2022-09-28T14:11:05.526Z,7.25
2022-09-28T14:13:19.107Z,7.73
2022-09-28T14:15:32.325Z,7.57
2022-09-28T14:17:47.752Z,7.57
2022-09-28T14:20:01.379Z,7.68
2022-09-28T14:22:16.937Z,7.36
2022-09-28T14:24:30.000Z,7.41
2022-09-28T14:26:45.704Z,7.36
2022-09-28T14:28:58.661Z,7.47
2022-09-28T14:31:14.262Z,7.52
2022-09-28T14:33:28.408Z,7.36
2022-09-28T14:35:41.451Z,7.36
2022-09-28T14:37:55.048Z,7.63
2022-09-28T14:40:10.627Z,7.30
2022-09-28T14:42:26.215Z,7.41
2022-09-28T14:44:41.839Z,7.30
2022-09-28T14:46:57.390Z,7.30
2022-09-28T14:49:10.960Z,7.73
2022-09-28T14:51:26.584Z,7.47
2022-09-28T14:53:42.956Z,7.30
2022-09-28T14:55:55.744Z,7.47
2022-09-28T14:58:11.893Z,7.36
2022-09-28T15:00:24.890Z,7.52
2022-09-28T15:02:36.964Z,7.79
2022-09-28T15:04:52.716Z,7.30
2022-09-28T15:07:08.165Z,7.63
2022-09-28T15:09:23.719Z,7.36
2022-09-28T15:11:35.797Z,7.36
2022-09-28T15:13:48.883Z,7.52
2022-09-28T15:16:01.062Z,7.57
2022-09-28T15:18:14.604Z,7.41
2022-09-28T15:20:29.191Z,7.47
2022-09-28T15:22:44.767Z,7.30
2022-09-28T15:25:02.829Z,7.41
2022-09-28T15:27:13.967Z,7.30
2022-09-28T15:29:29.566Z,7.57
2022-09-28T15:31:52.234Z,7.36
2022-09-28T15:34:03.421Z,7.52
2022-09-28T15:36:18.849Z,7.57
2022-09-28T15:38:30.924Z,7.30
2022-09-28T15:40:43.074Z,7.52
2022-09-28T15:42:59.202Z,7.41
2022-09-28T15:45:11.656Z,7.30
2022-09-28T15:47:26.235Z,7.52
2022-09-28T15:49:41.809Z,7.57
2022-09-28T15:51:54.917Z,7.47
2022-09-28T15:54:08.492Z,7.30
2022-09-28T15:56:22.070Z,7.36
2022-09-28T15:58:35.669Z,7.52
2022-09-28T16:00:51.260Z,7.63
2022-09-28T16:03:03.490Z,7.30
2022-09-28T16:05:16.960Z,7.20
2022-09-28T16:07:32.519Z,7.57
2022-09-28T16:09:48.100Z,7.36
2022-09-28T16:12:01.682Z,7.57
2022-09-28T16:14:18.318Z,7.30
2022-09-28T16:16:32.849Z,7.30
2022-09-28T16:18:48.428Z,7.25
2022-09-28T16:21:04.032Z,7.04
2022-09-28T16:23:22.108Z,7.30
2022-09-28T16:25:35.224Z,7.41
2022-09-28T16:27:49.796Z,7.57
2022-09-28T16:30:06.203Z,7.63
2022-09-28T16:33:46.612Z,7.52
2022-09-28T16:36:00.222Z,7.30
2022-09-28T16:38:13.293Z,7.36
2022-09-28T16:40:28.955Z,7.63
2022-09-28T16:43:22.441Z,7.57
2022-09-28T16:45:36.885Z,7.30
2022-09-28T16:47:51.086Z,7.52
2022-09-28T16:50:09.281Z,7.36
2022-09-28T16:53:48.773Z,7.47
2022-09-28T16:57:18.266Z,7.63
2022-09-28T16:59:33.486Z,7.20
2022-09-28T17:02:09.221Z,7.68
2022-09-28T17:05:38.804Z,7.20
2022-09-28T17:11:37.820Z,7.47
2022-09-28T17:15:07.205Z,7.63
2022-09-28T17:18:57.731Z,7.52
2022-09-28T17:21:07.775Z,7.09
2022-09-28T17:23:29.358Z,7.41
2022-09-28T17:29:04.991Z,7.36
2022-09-28T17:38:20.831Z,7.30
2022-09-28T17:43:42.340Z,7.36
2022-09-28T17:45:56.946Z,7.14
2022-09-28T17:49:35.880Z,7.41
2022-09-28T17:51:51.489Z,7.36
2022-09-28T17:54:08.169Z,7.52
2022-09-28T18:34:07.615Z,7.25
2022-09-28T18:37:00.746Z,7.36
2022-09-28T18:40:15.710Z,7.63
2022-09-28T18:42:36.120Z,7.47
2022-09-28T18:50:02.336Z,7.63
2022-09-28T18:52:20.206Z,7.36
2022-09-28T18:54:38.755Z,7.41
2022-09-28T18:56:56.404Z,7.41
2022-09-28T18:59:17.675Z,7.52
2022-09-28T19:01:34.178Z,7.57
2022-09-28T19:03:55.747Z,7.68
2022-09-28T19:06:16.354Z,7.57
2022-09-28T19:09:45.801Z,7.36
2022-09-28T19:15:50.425Z,7.41
2022-09-28T19:18:06.911Z,7.30
2022-09-28T19:22:07.371Z,7.36
2022-09-28T19:24:23.924Z,7.09
2022-09-28T19:39:10.740Z,7.04
2022-09-28T19:41:39.372Z,7.20
2022-09-28T19:45:40.395Z,7.04
2022-09-28T19:55:35.248Z,7.20
2022-09-28T20:00:31.976Z,7.36
2022-09-28T20:02:48.426Z,7.41
2022-09-28T20:05:02.926Z,7.14
2022-09-28T20:07:23.643Z,7.41
2022-09-28T20:09:41.645Z,7.41
2022-09-28T20:11:58.874Z,7.20
2022-09-28T20:15:23.028Z,7.57
2022-09-28T20:18:19.498Z,7.73
2022-09-28T20:22:11.512Z,7.41
2022-09-28T20:25:58.213Z,7.25
2022-09-28T20:29:21.734Z,7.41
2022-09-28T20:31:51.942Z,7.36
2022-09-28T20:34:12.462Z,7.30
2022-09-28T20:36:56.457Z,7.14
2022-09-28T20:39:13.637Z,7.09
2022-09-28T20:44:42.121Z,7.41
2022-09-28T20:58:30.733Z,7.09
2022-09-28T21:00:49.823Z,7.14
2022-09-28T21:03:41.520Z,7.20
2022-09-28T21:16:58.140Z,7.09
2022-09-28T21:19:15.464Z,7.20
2022-09-28T21:23:45.928Z,7.04
2022-09-28T21:26:47.685Z,7.47
2022-09-28T21:29:25.966Z,7.25
2022-09-28T21:32:35.241Z,7.36
2022-09-28T21:35:48.396Z,7.04
2022-09-28T21:38:09.221Z,7.36
2022-09-28T21:40:30.586Z,7.20
2022-09-28T21:42:47.116Z,7.09
2022-09-28T21:45:05.050Z,7.41
2022-09-28T21:47:22.843Z,7.41
2022-09-28T21:49:43.646Z,7.09
2022-09-28T21:52:01.460Z,7.36
2022-09-28T21:54:17.390Z,7.14
2022-09-28T21:58:38.395Z,7.14
2022-09-28T22:11:44.367Z,7.41
2022-09-28T22:14:18.659Z,7.36
2022-09-28T22:17:18.982Z,7.14
2022-09-28T22:20:02.173Z,7.25
2022-09-28T22:22:56.703Z,7.30
2022-09-28T22:25:17.286Z,7.41
2022-09-28T22:27:31.760Z,7.36
2022-09-28T22:30:34.172Z,7.14
2022-09-28T22:32:56.474Z,7.14
2022-09-28T22:35:31.477Z,7.20
2022-09-28T22:38:22.205Z,7.04
2022-09-28T22:42:02.857Z,7.36
2022-09-28T22:44:20.854Z,7.41
2022-09-28T22:46:40.026Z,7.14
2022-09-28T22:48:56.312Z,7.14
2022-09-28T22:51:13.300Z,7.14
2022-09-28T22:57:08.858Z,7.30
2022-09-28T23:05:38.561Z,7.47
2022-09-28T23:08:09.249Z,7.14
2022-09-28T23:10:26.306Z,7.09
2022-09-28T23:12:42.842Z,7.09
2022-09-28T23:15:01.322Z,7.09
2022-09-28T23:17:21.958Z,7.14
2022-09-28T23:21:43.197Z,7.25
2022-09-28T23:24:04.746Z,7.25
2022-09-28T23:26:21.604Z,7.41
2022-09-28T23:28:42.388Z,7.41
2022-09-28T23:31:03.409Z,7.25
2022-09-28T23:33:22.419Z,7.36
2022-09-28T23:35:51.512Z,7.30
2022-09-28T23:38:09.506Z,7.36
2022-09-28T23:40:26.446Z,7.41
2022-09-28T23:42:42.994Z,7.20
